Time;durP1;ratioP1;P1;durP2;ratioP2;P2;SDS_P1;SDS_P2;PMS_P1;PMS_P2;Temp;Humidity;BMP_temperature;BMP_pressure;BME280_temperature;BME280_humidity;BME280_pressure;Samples;Min_cycle;Max_cycle;Signal;HPM_P1;HPM_P2
2023/04/01 00:02:10;;;;;;;23.40;14.38;;;;;;;7.81;100.00;99026.34;1704770;83;21026;-62
2023/04/01 00:04:41;;;;;;;24.25;14.20;;;;;;;7.81;100.00;99023.61;1740609;81;21018;-61
2023/04/01 00:07:10;;;;;;;23.92;13.60;;;;;;;7.82;100.00;99024.45;1740637;82;21006;-63
2023/04/01 00:09:39;;;;;;;21.87;13.25;;;;;;;7.83;100.00;99026.96;1704871;83;21171;-62
2023/04/01 00:12:08;;;;;;;21.50;13.55;;;;;;;7.84;100.00;99030.00;1740492;82;21006;-63
2023/04/01 00:14:36;;;;;;;23.92;13.38;;;;;;;7.84;100.00;99025.07;1740695;82;21065;-62
2023/04/01 00:17:06;;;;;;;25.30;14.00;;;;;;;7.85;100.00;99032.20;1705215;84;21426;-62
2023/04/01 00:19:36;;;;;;;20.57;12.98;;;;;;;7.85;100.00;99038.49;1740326;81;21038;-62
2023/04/01 00:22:06;;;;;;;24.95;13.98;;;;;;;7.85;100.00;99030.84;1704959;84;21477;-63
2023/04/01 00:24:35;;;;;;;22.62;14.10;;;;;;;7.85;100.00;99030.31;1740526;81;21018;-63
2023/04/01 00:27:05;;;;;;;22.50;13.62;;;;;;;7.86;100.00;99026.53;1740371;82;21018;-61
2023/04/01 00:29:35;;;;;;;21.65;13.48;;;;;;;7.89;100.00;99031.56;1704733;83;21046;-62
2023/04/01 00:32:05;;;;;;;22.13;13.28;;;;;;;7.91;100.00;99025.36;1740307;81;21093;-61
2023/04/01 00:34:34;;;;;;;22.32;14.33;;;;;;;7.92;100.00;99024.31;1707495;83;21658;-62
2023/04/01 00:37:04;;;;;;;23.83;13.40;;;;;;;7.93;100.00;99026.52;1746059;82;21478;-61
2023/04/01 00:39:34;;;;;;;23.75;14.03;;;;;;;7.94;100.00;99017.28;1745964;82;21054;-61
2023/04/01 00:42:03;;;;;;;22.77;13.88;;;;;;;7.95;100.00;99012.14;1745980;82;21073;-62
2023/04/01 00:44:34;;;;;;;21.50;12.95;;;;;;;7.96;100.00;99013.81;1746188;81;21046;-62
2023/04/01 00:47:04;;;;;;;22.50;14.13;;;;;;;8.00;100.00;99018.31;1746056;82;21081;-62
2023/04/01 00:49:42;;;;;;;20.75;14.07;;;;;;;8.02;100.00;99019.77;1746303;82;20994;-63
2023/04/01 00:52:17;;;;;;;22.00;14.20;;;;;;;8.03;100.00;99021.45;1745913;82;21072;-62
2023/04/01 00:54:49;;;;;;;23.60;14.75;;;;;;;8.04;100.00;99012.73;1745985;82;21069;-61
2023/04/01 00:57:34;;;;;;;23.70;14.43;;;;;;;8.04;100.00;99014.10;1745878;82;21021;-60
2023/04/01 01:00:07;;;;;;;23.18;14.60;;;;;;;8.03;100.00;99009.70;1745928;82;21398;-64
2023/04/01 01:02:41;;;;;;;23.45;14.50;;;;;;;8.02;100.00;99011.59;1745946;82;21237;-64
2023/04/01 01:05:15;;;;;;;25.00;14.33;;;;;;;8.03;100.00;99015.16;1746091;81;21018;-62
2023/04/01 01:08:06;;;;;;;22.82;14.25;;;;;;;8.04;100.00;99011.38;1746116;82;21350;-61
2023/04/01 01:10:36;;;;;;;23.65;15.15;;;;;;;8.03;100.00;99002.35;1746371;82;21490;-62
2023/04/01 01:13:30;;;;;;;25.88;14.95;;;;;;;8.03;100.00;99006.97;1747678;81;21049;-62
2023/04/01 01:16:19;;;;;;;25.70;14.75;;;;;;;8.01;100.00;99006.34;1685293;85;21003;-62
2023/04/01 01:19:12;;;;;;;23.10;13.98;;;;;;;8.04;100.00;99010.01;1748908;81;21018;-61
2023/04/01 01:22:00;;;;;;;26.15;15.00;;;;;;;8.04;100.00;99014.10;1748919;82;21481;-62
2023/04/01 01:24:59;;;;;;;23.70;14.13;;;;;;;8.06;100.00;99014.72;1747676;82;21013;-61
2023/04/01 01:27:29;;;;;;;27.37;15.30;;;;;;;8.06;100.00;99014.72;1746192;82;21518;-62
2023/04/01 01:30:16;;;;;;;29.30;16.70;;;;;;;8.06;99.96;99014.20;1745832;82;21026;-62
2023/04/01 01:33:20;;;;;;;28.27;15.53;;;;;;;8.06;99.92;99019.65;1745593;82;21097;-62
2023/04/01 01:35:55;;;;;;;30.17;16.02;;;;;;;8.07;99.92;99017.23;1702466;83;21076;-63
2023/04/01 01:38:30;;;;;;;29.92;15.43;;;;;;;8.07;99.85;99024.05;1690822;85;21074;-63
2023/04/01 01:41:05;;;;;;;24.07;15.32;;;;;;;8.09;99.78;99033.38;1717782;83;21507;-63
2023/04/01 01:43:39;;;;;;;25.27;15.32;;;;;;;8.07;99.66;99025.94;1717763;83;21443;-63
2023/04/01 01:46:13;;;;;;;26.55;15.68;;;;;;;8.06;99.65;99028.36;1717939;83;21036;-62
2023/04/01 01:48:42;;;;;;;28.02;16.85;;;;;;;8.05;99.66;99028.88;1717712;83;21042;-62
2023/04/01 01:51:13;;;;;;;24.63;15.23;;;;;;;8.05;99.72;99032.14;1717719;83;21619;-61
2023/04/01 01:53:42;;;;;;;29.30;16.12;;;;;;;8.06;99.75;99040.63;1717783;83;21114;-63
2023/04/01 01:56:16;;;;;;;25.82;15.80;;;;;;;8.07;99.73;99038.22;1691579;83;21004;-63
2023/04/01 01:58:47;;;;;;;27.58;16.12;;;;;;;8.09;99.66;99045.66;1717727;83;20997;-62
2023/04/01 02:01:22;;;;;;;28.47;15.32;;;;;;;8.10;99.66;99047.33;1717742;83;21560;-62
2023/04/01 02:03:52;;;;;;;27.45;15.45;;;;;;;8.11;99.67;99043.03;1669143;83;21060;-63
2023/04/01 02:06:26;;;;;;;27.17;15.48;;;;;;;8.15;99.65;99042.07;1691984;83;21062;-61
2023/04/01 02:09:00;;;;;;;29.42;15.65;;;;;;;8.16;99.54;99049.20;1690717;85;21471;-62
2023/04/01 02:11:51;;;;;;;26.68;16.10;;;;;;;8.15;99.47;99052.98;1717691;83;21469;-63
2023/04/01 02:14:26;;;;;;;28.57;15.93;;;;;;;8.14;99.42;99043.13;1717569;83;21031;-63
2023/04/01 02:17:09;;;;;;;27.25;15.68;;;;;;;8.12;99.41;99046.59;1690702;85;21059;-63
2023/04/01 02:19:51;;;;;;;26.40;15.95;;;;;;;8.11;99.35;99045.76;1692340;83;22184;-62
2023/04/01 02:22:35;;;;;;;26.68;15.35;;;;;;;8.11;99.34;99043.55;1717792;83;21079;-63
2023/04/01 02:25:09;;;;;;;27.35;15.13;;;;;;;8.11;99.34;99044.92;1717661;83;21102;-63
2023/04/01 02:27:39;;;;;;;26.57;15.83;;;;;;;8.13;99.34;99046.91;1692039;83;21100;-64
2023/04/01 02:30:11;;;;;;;27.05;15.00;;;;;;;8.13;99.30;99042.81;1717772;83;21037;-62
2023/04/01 02:32:40;;;;;;;28.00;14.73;;;;;;;8.12;99.26;99049.32;1717706;83;21037;-61
2023/04/01 02:35:11;;;;;;;28.07;15.58;;;;;;;8.11;99.18;99044.39;1693905;83;21086;-62
2023/04/01 02:37:42;;;;;;;26.82;15.55;;;;;;;8.08;99.16;99039.89;1740294;82;21050;-62
2023/04/01 02:40:14;;;;;;;26.23;14.73;;;;;;;8.07;99.19;99040.95;1685246;84;21069;-62
2023/04/01 02:42:44;;;;;;;29.12;15.65;;;;;;;8.05;99.24;99032.98;1740272;81;21030;-62
2023/04/01 02:45:14;;;;;;;26.05;14.38;;;;;;;8.07;99.27;99034.97;1740485;82;21046;-63
2023/04/01 02:47:43;;;;;;;25.32;14.75;;;;;;;8.09;99.25;99038.84;1740034;81;21516;-62
2023/04/01 02:50:13;;;;;;;28.02;14.53;;;;;;;8.09;99.20;99038.31;1705115;84;21049;-63
2023/04/01 02:52:44;;;;;;;23.22;15.10;;;;;;;8.11;99.09;99040.30;1739979;81;21022;-62
2023/04/01 02:55:14;;;;;;;26.55;14.83;;;;;;;8.10;99.03;99036.42;1684627;84;21045;-61
2023/04/01 02:57:44;;;;;;;26.97;15.10;;;;;;;8.08;99.00;99038.53;1740289;82;20983;-62
2023/04/01 03:00:16;;;;;;;29.35;15.50;;;;;;;8.08;98.98;99031.19;1704577;84;21009;-62
2023/04/01 03:02:46;;;;;;;24.77;15.00;;;;;;;8.08;98.94;99033.91;1740173;82;21049;-63
2023/04/01 03:05:16;;;;;;;25.97;15.30;;;;;;;8.09;98.90;99037.48;1704916;84;21035;-61
2023/04/01 03:07:47;;;;;;;28.17;15.95;;;;;;;8.11;98.87;99047.65;1740125;81;21482;-62
2023/04/01 03:10:17;;;;;;;25.70;14.60;;;;;;;8.11;98.75;99040.83;1704838;83;21013;-63
2023/04/01 03:12:46;;;;;;;23.62;14.80;;;;;;;8.12;98.75;99047.95;1740079;82;22348;-62
2023/04/01 03:15:16;;;;;;;25.45;14.95;;;;;;;8.12;98.68;99042.50;1704991;84;21057;-62
2023/04/01 03:17:46;;;;;;;26.77;14.68;;;;;;;8.13;98.67;99037.36;1740190;82;21457;-63
2023/04/01 03:20:16;;;;;;;27.50;15.43;;;;;;;8.12;98.60;99037.05;1704683;84;21491;-63
2023/04/01 03:22:46;;;;;;;22.17;13.75;;;;;;;8.11;98.66;99038.09;1740424;82;21050;-62
2023/04/01 03:25:16;;;;;;;25.55;15.38;;;;;;;8.09;98.51;99039.67;1704833;84;21515;-61
2023/04/01 03:27:46;;;;;;;21.77;13.20;;;;;;;8.07;98.50;99038.22;1740513;82;21022;-61
2023/04/01 03:30:16;;;;;;;24.45;15.00;;;;;;;8.06;98.49;99039.27;1740404;81;21065;-63
2023/04/01 03:32:47;;;;;;;25.12;14.25;;;;;;;8.04;98.50;99039.48;1704980;84;21088;-60
2023/04/01 03:35:17;;;;;;;24.82;14.58;;;;;;;8.06;98.53;99039.27;1740440;82;20998;-62
2023/04/01 03:37:46;;;;;;;24.50;14.68;;;;;;;8.05;98.48;99038.43;1684547;84;21097;-63
2023/04/01 03:40:15;;;;;;;25.08;15.28;;;;;;;8.05;98.49;99043.05;1740610;81;21014;-62
2023/04/01 03:42:44;;;;;;;29.10;15.63;;;;;;;8.05;98.54;99048.51;1740149;82;21014;-63
2023/04/01 03:45:16;;;;;;;26.10;15.43;;;;;;;8.06;98.54;99051.55;1704745;84;21527;-62
2023/04/01 03:47:45;;;;;;;27.75;15.05;;;;;;;8.07;98.50;99060.04;1740264;82;21050;-62
2023/04/01 03:50:15;;;;;;;23.87;14.55;;;;;;;8.07;98.47;99057.31;1704710;84;21453;-59
2023/04/01 03:52:44;;;;;;;25.00;14.78;;;;;;;8.03;98.32;99062.36;1740494;82;20978;-63
2023/04/01 03:55:14;;;;;;;23.65;14.10;;;;;;;7.98;98.19;99059.44;1704867;84;21405;-63
2023/04/01 03:57:43;;;;;;;26.73;15.18;;;;;;;7.97;98.24;99065.10;1740291;81;21070;-62
2023/04/01 04:00:15;;;;;;;23.52;14.10;;;;;;;7.95;98.31;99070.77;1704520;83;21089;-61
2023/04/01 04:02:46;;;;;;;24.55;14.15;;;;;;;7.93;98.36;99063.33;1740179;81;21071;-63
2023/04/01 04:05:17;;;;;;;24.35;13.50;;;;;;;7.90;98.40;99069.20;1740162;81;21034;-63
2023/04/01 04:07:47;;;;;;;22.27;13.55;;;;;;;7.86;98.43;99070.69;1704934;84;21049;-61
2023/04/01 04:10:16;;;;;;;23.60;13.30;;;;;;;7.83;98.48;99069.75;1740489;81;21038;-63
2023/04/01 04:12:45;;;;;;;23.42;13.15;;;;;;;7.84;98.58;99070.91;1740275;82;21006;-63
2023/04/01 04:15:15;;;;;;;22.25;14.05;;;;;;;7.85;98.73;99073.10;1740377;81;21057;-62
2023/04/01 04:17:45;;;;;;;21.40;13.28;;;;;;;7.86;98.74;99075.61;1705080;83;21527;-62
2023/04/01 04:20:18;;;;;;;23.18;13.93;;;;;;;7.87;98.80;99079.18;1740383;81;21018;-60
2023/04/01 04:22:48;;;;;;;23.30;13.60;;;;;;;7.88;98.78;99085.78;1704887;84;21085;-62
2023/04/01 04:25:18;;;;;;;24.95;13.58;;;;;;;7.87;98.82;99087.36;1740476;81;21489;-63
2023/04/01 04:27:49;;;;;;;26.27;14.18;;;;;;;7.87;98.83;99090.92;1740419;81;21512;-62
2023/04/01 04:30:18;;;;;;;24.95;14.00;;;;;;;7.89;98.97;99097.53;1704894;84;21092;-61
2023/04/01 04:32:47;;;;;;;22.85;13.80;;;;;;;7.90;98.98;99096.48;1740466;82;21473;-62
2023/04/01 04:35:17;;;;;;;24.98;14.28;;;;;;;7.89;98.99;99094.28;1704859;83;21485;-63
2023/04/01 04:37:48;;;;;;;22.37;13.32;;;;;;;7.90;99.03;99082.84;1740409;82;21485;-63
2023/04/01 04:40:18;;;;;;;23.12;12.98;;;;;;;7.91;99.08;99075.81;1740596;82;21861;-61
2023/04/01 04:42:46;;;;;;;24.57;13.80;;;;;;;7.90;99.06;99078.23;1704811;84;21041;-61
2023/04/01 04:45:18;;;;;;;23.77;14.05;;;;;;;7.92;99.09;99080.22;1740532;81;21122;-63
2023/04/01 04:47:50;;;;;;;22.27;13.32;;;;;;;7.92;99.04;99078.86;1704260;84;21049;-61
2023/04/01 04:50:20;;;;;;;22.10;13.00;;;;;;;7.94;99.08;99082.20;1740755;81;21030;-62
2023/04/01 04:52:50;;;;;;;24.67;14.18;;;;;;;7.95;98.99;99077.59;1704994;84;21089;-63
2023/04/01 04:55:20;;;;;;;22.02;13.15;;;;;;;7.93;98.91;99071.51;1742353;82;21033;-63
2023/04/01 04:57:52;;;;;;;23.52;13.20;;;;;;;7.95;99.02;99077.59;1707456;84;21085;-63
2023/04/01 05:00:23;;;;;;;23.22;12.30;;;;;;;7.97;98.98;99079.58;1743565;82;21324;-62
2023/04/01 05:02:57;;;;;;;21.57;12.90;;;;;;;7.97;98.96;99075.48;1707618;83;21106;-62
2023/04/01 05:05:26;;;;;;;20.95;12.15;;;;;;;7.99;98.92;99079.36;1741558;82;21126;-63
2023/04/01 05:07:55;;;;;;;20.70;12.03;;;;;;;8.00;98.99;99077.78;1740583;82;21446;-62
2023/04/01 05:10:26;;;;;;;20.30;11.80;;;;;;;8.05;98.97;99079.88;1705050;84;21037;-62
2023/04/01 05:12:55;;;;;;;20.55;12.45;;;;;;;8.07;98.97;99074.52;1740322;81;21093;-62
2023/04/01 05:15:25;;;;;;;23.25;12.47;;;;;;;8.12;98.92;99072.51;1740549;82;21022;-62
2023/04/01 05:17:54;;;;;;;23.18;13.48;;;;;;;8.12;98.75;99065.16;1705014;84;21092;-62
2023/04/01 05:20:25;;;;;;;21.48;12.30;;;;;;;8.15;98.76;99070.72;1740656;82;21041;-63
2023/04/01 05:22:59;;;;;;;22.60;12.23;;;;;;;8.16;98.62;99066.94;1740360;81;21206;-62
2023/04/01 05:25:28;;;;;;;20.08;11.60;;;;;;;8.17;98.37;99071.34;1740046;82;21061;-62
2023/04/01 05:27:59;;;;;;;19.65;12.07;;;;;;;8.14;98.16;99075.86;1740363;81;21006;-63
2023/04/01 05:30:29;;;;;;;20.85;11.65;;;;;;;8.14;98.08;99071.77;1704745;84;21121;-62
2023/04/01 05:33:03;;;;;;;20.48;11.43;;;;;;;8.16;98.05;99078.69;1716984;82;21073;-63
2023/04/01 05:35:34;;;;;;;18.60;11.28;;;;;;;8.18;98.04;99073.85;1706620;83;21065;-62
2023/04/01 05:38:04;;;;;;;21.05;11.88;;;;;;;8.21;98.00;99082.13;1718918;82;21454;-63
2023/04/01 05:40:35;;;;;;;23.73;12.23;;;;;;;8.24;97.96;99077.61;1718377;82;20994;-61
2023/04/01 05:43:05;;;;;;;19.35;11.53;;;;;;;8.26;97.89;99079.07;1746218;82;21453;-62
2023/04/01 05:45:34;;;;;;;18.80;10.55;;;;;;;8.30;97.80;99082.20;1745927;82;21018;-63
2023/04/01 05:48:06;;;;;;;16.45;10.03;;;;;;;8.33;97.67;99089.99;1742030;82;21561;-63
2023/04/01 05:50:37;;;;;;;20.12;11.30;;;;;;;8.34;97.19;99093.03;1745511;81;21034;-62
2023/04/01 05:53:06;;;;;;;19.10;10.82;;;;;;;8.31;96.96;99090.70;1745751;81;21026;-62
2023/04/01 05:55:36;;;;;;;20.43;11.43;;;;;;;8.33;96.84;99091.85;1719108;82;21473;-64
2023/04/01 05:58:05;;;;;;;19.85;11.05;;;;;;;8.36;96.71;99097.75;1745838;81;21062;-62
2023/04/01 06:00:35;;;;;;;19.52;11.28;;;;;;;8.36;96.55;99100.48;1745857;82;21434;-63
2023/04/01 06:03:07;;;;;;;21.65;12.07;;;;;;;8.38;96.48;99099.73;1745799;82;21022;-63
2023/04/01 06:05:41;;;;;;;21.45;11.53;;;;;;;8.38;96.33;99094.80;1745804;81;21059;-62
2023/04/01 06:08:17;;;;;;;18.92;10.78;;;;;;;8.40;96.33;99094.06;1656724;86;21047;-63
2023/04/01 06:11:13;;;;;;;;;;;;;;;8.43;96.30;99090.91;1658778;86;21060;-63
2023/04/01 06:14:20;;;;;;;22.80;11.25;;;;;;;8.44;96.15;99100.77;1656588;86;20189;-63
2023/04/01 06:17:16;;;;;;;24.12;12.33;;;;;;;8.42;96.23;99099.62;1656953;86;21459;-63
2023/04/01 06:20:21;;;;;;;19.75;10.90;;;;;;;8.46;96.22;99108.25;1656863;86;21533;-64
2023/04/01 06:23:04;;;;;;;18.55;10.68;;;;;;;8.50;96.20;99114.95;1656696;86;21038;-63
2023/04/01 06:25:57;;;;;;;20.62;10.80;;;;;;;8.51;95.97;99109.27;1666192;82;21445;-63
2023/04/01 06:29:01;;;;;;;18.87;10.60;;;;;;;8.52;95.85;99104.13;1745866;81;21037;-62
2023/04/01 06:32:06;;;;;;;20.10;11.33;;;;;;;8.54;95.73;99092.98;1712336;82;21037;-62
2023/04/01 06:35:19;;;;;;;20.05;10.98;;;;;;;8.57;95.64;99093.39;1655241;86;21035;-62
2023/04/01 06:38:16;;;;;;;22.35;11.38;;;;;;;8.64;95.62;99082.97;1750586;82;21026;-63
2023/04/01 06:41:26;;;;;;;19.37;9.78;;;;;;;8.68;95.40;99086.41;1721558;82;21025;-63
2023/04/01 06:44:30;;;;;;;22.52;11.38;;;;;;;8.73;95.29;99080.30;1738926;81;21057;-63
2023/04/01 06:47:46;;;;;;;19.92;10.98;;;;;;;8.82;95.12;99082.55;1714362;83;21108;-62
2023/04/01 06:50:55;;;;;;;20.57;10.75;;;;;;;8.88;94.80;99083.56;1750487;82;21026;-62
2023/04/01 06:54:24;;;;;;;23.83;10.95;;;;;;;8.95;94.50;99080.27;1744739;82;21470;-63
2023/04/01 06:57:44;;;;;;;18.87;10.28;;;;;;;8.99;93.82;99078.77;1714633;83;21056;-62
2023/04/01 07:00:27;;;;;;;19.00;10.40;;;;;;;9.00;93.53;99080.45;1745369;81;21437;-64
2023/04/01 07:03:14;;;;;;;18.80;11.20;;;;;;;9.06;93.54;99090.49;1714427;83;21025;-62
2023/04/01 07:05:44;;;;;;;17.62;10.72;;;;;;;9.13;93.59;99090.48;1750637;81;21085;-64
2023/04/01 07:08:24;;;;;;;18.95;10.80;;;;;;;9.23;93.49;99095.46;1750316;81;20990;-64
2023/04/01 07:11:06;;;;;;;21.77;10.88;;;;;;;9.30;93.11;99093.52;1714300;84;21044;-62
2023/04/01 07:14:06;;;;;;;19.85;10.93;;;;;;;9.34;92.66;99097.48;1684703;82;21034;-64
2023/04/01 07:16:52;;;;;;;18.98;10.32;;;;;;;9.38;92.33;99108.28;1750222;82;21536;-63
2023/04/01 07:19:30;;;;;;;31.77;11.10;;;;;;;9.40;91.96;99100.70;1745536;82;20986;-63
2023/04/01 07:22:06;;;;;;;24.15;11.12;;;;;;;9.44;91.78;99106.86;1714330;84;21005;-62
2023/04/01 07:24:40;;;;;;;21.02;10.48;;;;;;;9.50;91.45;99102.41;1746666;82;21478;-63
2023/04/01 07:27:13;;;;;;;20.23;10.43;;;;;;;9.54;91.28;99103.63;1750353;81;21021;-62
2023/04/01 07:29:43;;;;;;;18.60;10.75;;;;;;;9.60;91.02;99104.11;1750607;82;21021;-63
2023/04/01 07:32:48;;;;;;;18.05;10.38;;;;;;;9.63;90.58;99099.55;1714578;82;21088;-62
2023/04/01 07:35:29;;;;;;;18.00;9.40;;;;;;;9.69;90.47;99095.09;1747367;81;21097;-62
2023/04/01 07:38:37;;;;;;;17.77;10.15;;;;;;;9.79;89.97;99103.13;1740256;82;21029;-63
2023/04/01 07:41:15;;;;;;;22.02;10.85;;;;;;;9.83;89.52;99100.78;1677989;82;21081;-62
2023/04/01 07:44:08;;;;;;;;;;;;;;;9.86;89.20;99100.33;1707152;83;21556;-60
2023/04/01 07:47:14;;;;;;;23.80;10.58;;;;;;;9.93;88.92;99089.32;1652830;86;20204;-63
2023/04/01 07:50:17;;;;;;;18.92;10.28;;;;;;;10.00;88.84;99088.19;1686322;84;21102;-62
2023/04/01 07:53:02;;;;;;;17.90;10.32;;;;;;;10.09;88.37;99090.94;1686264;84;21471;-63
2023/04/01 07:55:48;;;;;;;18.60;10.00;;;;;;;10.19;87.89;99097.25;1685809;85;21042;-64
2023/04/01 07:58:45;;;;;;;22.90;10.30;;;;;;;10.28;87.55;99089.61;1686340;83;21031;-65
2023/04/01 08:01:46;;;;;;;19.60;10.20;;;;;;;10.41;87.24;99094.96;1571254;88;21174;-63
2023/04/01 08:04:51;;;;;;;20.20;10.23;;;;;;;10.61;86.64;99094.72;1640640;84;21081;-64
2023/04/01 08:07:28;;;;;;;19.90;10.45;;;;;;;10.85;86.01;99107.47;1733666;82;21051;-64
2023/04/01 08:10:59;;;;;;;16.07;10.23;;;;;;;11.08;85.31;99110.87;1734179;83;21438;-63
2023/04/01 08:14:10;;;;;;;20.00;10.70;;;;;;;11.23;83.74;99109.08;1679461;84;21066;-64
2023/04/01 08:17:07;;;;;;;21.65;10.43;;;;;;;11.32;83.11;99103.55;1735178;82;21042;-62
2023/04/01 08:20:01;;;;;;;19.27;10.43;;;;;;;11.39;82.37;99113.35;1704550;84;21049;-64
2023/04/01 08:22:38;;;;;;;18.90;10.80;;;;;;;11.44;81.60;99119.50;1740168;81;21010;-64
2023/04/01 08:25:20;;;;;;;24.05;10.80;;;;;;;11.41;81.05;99126.30;1704341;83;21625;-63
2023/04/01 08:28:10;;;;;;;22.80;11.40;;;;;;;11.41;80.91;99121.34;1740280;82;21480;-64
2023/04/01 08:30:59;;;;;;;24.23;12.45;;;;;;;11.38;80.72;99128.67;1704731;84;21069;-63
2023/04/01 08:33:31;;;;;;;24.82;12.65;;;;;;;11.35;80.93;99126.40;1713996;82;21698;-62
2023/04/01 08:36:17;;;;;;;22.70;12.75;;;;;;;11.33;80.76;99125.80;1736252;81;21020;-63
2023/04/01 08:39:01;;;;;;;28.98;12.98;;;;;;;11.31;80.75;99132.05;1737087;83;21292;-64
2023/04/01 08:41:38;;;;;;;30.72;14.43;;;;;;;11.30;80.87;99123.52;1736281;83;20996;-63
2023/04/01 08:44:47;;;;;;;33.98;15.03;;;;;;;11.30;81.15;99124.89;1739358;81;21079;-63
2023/04/01 08:47:41;;;;;;;36.40;16.12;;;;;;;11.31;80.96;99121.08;1762203;81;21091;-63
2023/04/01 08:50:36;;;;;;;36.77;17.12;;;;;;;11.28;80.52;99122.92;1734052;82;21431;-64
2023/04/01 08:53:45;;;;;;;39.38;19.57;;;;;;;11.30;80.90;99116.67;1734697;81;21056;-64
2023/04/01 08:56:55;;;;;;;40.10;17.97;;;;;;;11.39;80.78;99122.12;1733715;82;21055;-64
2023/04/01 08:59:55;;;;;;;37.90;16.40;;;;;;;11.50;80.30;99122.68;1739941;81;21699;-63
2023/04/01 09:02:53;;;;;;;39.50;16.17;;;;;;;11.60;79.83;99120.73;1649612;83;21556;-70
2023/04/01 09:05:57;;;;;;;39.50;16.93;;;;;;;11.68;79.32;99131.36;1742716;82;21023;-68
2023/04/01 09:08:51;;;;;;;33.83;16.62;;;;;;;11.78;78.83;99122.61;1686288;84;21092;-68
2023/04/01 09:11:36;;;;;;;36.23;16.60;;;;;;;11.93;78.43;99125.73;1705680;84;21037;-68
2023/04/01 09:14:17;;;;;;;33.10;16.48;;;;;;;12.08;77.95;99112.91;1687304;83;21093;-67
2023/04/01 09:17:44;;;;;;;44.08;17.35;;;;;;;12.22;77.73;99117.08;1662194;85;21307;-69
2023/04/01 09:20:42;;;;;;;34.92;16.10;;;;;;;12.36;77.23;99122.11;1686308;84;21131;-68
2023/04/01 09:23:37;;;;;;;32.90;16.20;;;;;;;12.58;76.13;99111.86;1686648;85;21074;-69
2023/04/01 09:26:40;;;;;;;35.85;17.48;;;;;;;12.69;75.80;99121.98;1686286;84;21456;-67
2023/04/01 09:29:21;;;;;;;39.50;17.00;;;;;;;12.75;75.05;99118.27;1686492;84;21063;-67
2023/04/01 09:32:05;;;;;;;36.60;16.35;;;;;;;12.77;74.61;99113.90;1685970;85;21493;-68
2023/04/01 09:34:56;;;;;;;31.25;16.00;;;;;;;12.81;74.36;99111.80;1736996;82;21047;-67
2023/04/01 09:37:48;;;;;;;35.50;16.82;;;;;;;12.84;73.71;99103.06;1720477;82;21075;-67
2023/04/01 09:40:28;;;;;;;32.65;16.52;;;;;;;12.83;73.37;99108.27;1699140;82;21210;-68
2023/04/01 09:43:20;;;;;;;32.85;16.40;;;;;;;12.82;73.27;99106.59;1699179;84;21471;-67
2023/04/01 09:46:26;;;;;;;34.55;15.38;;;;;;;12.83;73.36;99106.89;1699169;83;21119;-68
2023/04/01 09:49:19;;;;;;;23.67;14.23;;;;;;;12.88;72.56;99102.87;1699057;84;21050;-66
2023/04/01 09:52:14;;;;;;;23.65;13.55;;;;;;;12.95;72.34;99104.93;1699291;84;21035;-66
2023/04/01 09:55:23;;;;;;;27.02;13.75;;;;;;;12.99;71.46;99103.90;1666629;84;21064;-65
2023/04/01 09:58:27;;;;;;;24.30;12.55;;;;;;;13.05;71.46;99108.99;1666737;85;21561;-66
2023/04/01 10:01:22;;;;;;;26.95;13.10;;;;;;;13.17;70.53;99110.64;1686124;84;21090;-66
2023/04/01 10:04:29;;;;;;;27.73;12.30;;;;;;;13.25;69.73;99112.99;1699128;83;21031;-66
2023/04/01 10:07:12;;;;;;;;;;;;;;;13.27;69.38;99108.63;1749230;82;21017;-66
2023/04/01 10:10:20;;;;;;;22.52;12.13;;;;;;;13.28;69.17;99103.41;1726261;83;20881;-70
2023/04/01 10:13:27;;;;;;;22.58;11.10;;;;;;;13.28;69.45;99102.03;1693680;85;21146;-70
2023/04/01 10:16:27;;;;;;;21.77;10.35;;;;;;;13.33;69.81;99091.12;1696406;83;21105;-70
2023/04/01 10:19:32;;;;;;;19.52;9.83;;;;;;;13.42;69.36;99082.77;1640695;87;21010;-69
2023/04/01 10:22:32;;;;;;;21.60;11.35;;;;;;;13.51;69.10;99079.05;1700575;84;21054;-70
2023/04/01 10:25:47;;;;;;;17.12;10.58;;;;;;;13.59;68.68;99080.86;1700702;83;21003;-71
2023/04/01 10:28:45;;;;;;;19.37;9.83;;;;;;;13.66;68.77;99077.97;1700850;84;21050;-71
2023/04/01 10:31:32;;;;;;;18.62;9.15;;;;;;;13.76;68.51;99074.00;1669580;85;21084;-71
2023/04/01 10:34:30;;;;;;;15.10;8.53;;;;;;;13.81;67.62;99074.62;1691081;84;20996;-67
2023/04/01 10:37:08;;;;;;;;;;;;;;;13.85;67.15;99059.27;1707732;82;21086;-66
2023/04/01 10:39:58;;;;;;;18.35;8.75;;;;;;;13.87;67.04;99058.48;1740067;81;20150;-67
2023/04/01 10:43:22;;;;;;;12.20;7.80;;;;;;;13.87;66.72;99051.05;1703842;83;21053;-68
2023/04/01 10:47:02;;;;;;;12.15;7.75;;;;;;;13.88;66.71;99055.47;1677067;85;21036;-66
2023/04/01 10:50:12;;;;;;;17.20;8.05;;;;;;;13.90;66.34;99052.47;1740298;82;21018;-67
2023/04/01 10:53:21;;;;;;;13.72;7.87;;;;;;;13.99;66.45;99056.46;1737234;81;21529;-66
2023/04/01 10:56:40;;;;;;;12.50;7.97;;;;;;;14.06;65.89;99052.15;1736022;82;21503;-68
2023/04/01 10:59:52;;;;;;;;;;;;;;;14.08;65.82;99052.19;1707184;84;21104;-67
2023/04/01 11:03:13;;;;;;;17.70;7.35;;;;;;;14.09;65.67;99056.61;1704528;84;20161;-67
2023/04/01 11:06:30;;;;;;;12.50;7.10;;;;;;;14.08;65.82;99056.31;1680268;81;21562;-65
2023/04/01 11:09:30;;;;;;;14.03;6.97;;;;;;;14.10;65.64;99056.89;1753983;81;21067;-68
2023/04/01 11:12:50;;;;;;;14.50;7.40;;;;;;;14.12;65.87;99060.23;1758146;81;20995;-67
2023/04/01 11:15:56;;;;;;;14.07;7.10;;;;;;;14.20;65.72;99064.47;1749779;81;21474;-66
2023/04/01 11:18:54;;;;;;;16.00;7.78;;;;;;;14.19;65.38;99054.00;1740617;81;21446;-66
2023/04/01 11:22:09;;;;;;;42.60;20.90;;;;;;;14.21;64.99;99062.01;1704531;83;21492;-68
2023/04/01 11:25:12;;;;;;;15.58;7.55;;;;;;;14.18;64.35;99045.98;1739664;82;21089;-67
2023/04/01 11:27:52;;;;;;;11.88;6.90;;;;;;;14.15;64.09;99050.63;1704231;84;21539;-65
2023/04/01 11:30:51;;;;;;;12.43;6.58;;;;;;;14.12;64.19;99043.70;1677680;85;21563;-67
2023/04/01 11:33:40;;;;;;;13.83;7.70;;;;;;;14.09;64.29;99045.59;1696982;82;21034;-66
2023/04/01 11:36:20;;;;;;;11.50;6.90;;;;;;;14.07;64.54;99036.75;1740426;82;21038;-68
2023/04/01 11:39:35;;;;;;;15.98;6.65;;;;;;;14.07;64.62;99038.13;1740244;81;21075;-64
2023/04/01 11:42:25;;;;;;;13.53;6.83;;;;;;;14.08;64.09;99026.02;1740766;81;21039;-70
2023/04/01 11:45:35;;;;;;;13.10;7.10;;;;;;;14.09;64.25;99031.82;1652060;82;21094;-66
2023/04/01 11:48:28;;;;;;;11.15;6.20;;;;;;;14.10;64.56;99022.47;1740782;82;21035;-69
2023/04/01 11:51:12;;;;;;;10.35;6.00;;;;;;;14.13;64.22;99020.58;1740914;82;21082;-67
2023/04/01 11:54:25;;;;;;;10.48;6.45;;;;;;;14.16;64.19;99009.59;1740917;82;21103;-67
2023/04/01 11:57:43;;;;;;;16.67;7.83;;;;;;;14.16;63.85;99011.81;1743126;82;21112;-67
2023/04/01 12:00:53;;;;;;;11.90;6.30;;;;;;;14.16;64.12;99006.30;1744224;82;21095;-67
2023/04/01 12:03:38;;;;;;;9.98;6.60;;;;;;;14.16;64.69;98996.66;1743243;82;21062;-68
2023/04/01 12:06:41;;;;;;;12.33;6.83;;;;;;;14.16;64.53;98996.66;1746851;82;21054;-70
2023/04/01 12:09:27;;;;;;;13.03;6.28;;;;;;;14.15;64.74;98993.62;1750843;82;21073;-66
2023/04/01 12:12:08;;;;;;;13.30;7.03;;;;;;;14.17;64.89;98989.23;1750745;81;21494;-66
2023/04/01 12:15:13;;;;;;;11.22;6.70;;;;;;;14.19;64.97;98993.39;1748740;82;21209;-65
2023/04/01 12:18:13;;;;;;;11.63;5.55;;;;;;;14.24;64.96;98993.46;1679230;85;21100;-68
2023/04/01 12:20:55;;;;;;;9.95;6.00;;;;;;;14.32;64.99;98993.59;1679452;85;21136;-70
2023/04/01 12:23:53;;;;;;;11.38;5.92;;;;;;;14.39;64.70;98992.02;1679632;85;21044;-67
2023/04/01 12:26:34;;;;;;;11.65;5.90;;;;;;;14.43;64.22;98992.66;1679370;84;21057;-69
2023/04/01 12:29:17;;;;;;;9.68;5.65;;;;;;;14.42;64.04;98988.74;1679256;85;21496;-67
2023/04/01 12:32:17;;;;;;;10.88;6.03;;;;;;;14.42;63.97;98992.88;1677673;84;21064;-67
2023/04/01 12:35:17;;;;;;;9.55;5.17;;;;;;;14.42;63.68;98985.98;1679143;85;21123;-69
2023/04/01 12:38:11;;;;;;;13.28;5.60;;;;;;;14.42;63.15;98994.25;1677091;85;21067;-69
2023/04/01 12:40:58;;;;;;;12.85;5.05;;;;;;;14.41;63.19;98989.84;1673838;85;21038;-67
2023/04/01 12:43:56;;;;;;;9.83;5.05;;;;;;;14.40;62.64;98992.30;1739634;82;21082;-70